Time,TemperatureF,DewpointF,PressureIn,WindDirection,WindDirectionDegrees,WindSpeedMPH,WindSpeedGustMPH,Humidity,HourlyPrecipIn,Conditions,Clouds,dailyrainin,SolarRadiationWatts/m^2,SoftwareType,DateUTC
2014-01-06 00:11:00,70.8,68.0,29.97,North,-999,0.0,0.0,89,0.00,,,0.00,0,weatherlink.com 1.10,2014-01-06 05:11:00,
2014-01-06 00:27:00,70.8,68.0,29.97,North,-999,0.0,0.0,89,0.00,,,0.00,0,weatherlink.com 1.10,2014-01-06 05:27:00,
2014-01-06 00:41:00,70.8,68.0,29.96,North,-999,0.0,0.0,89,0.00,,,0.00,0,weatherlink.com 1.10,2014-01-06 05:41:00,
2014-01-06 00:56:00,70.8,68.0,29.96,North,-999,0.0,0.0,90,0.00,,,0.00,0,weatherlink.com 1.10,2014-01-06 05:56:00,
2014-01-06 01:11:00,70.6,68.0,29.96,North,-999,0.0,0.0,90,0.00,,,0.00,0,weatherlink.com 1.10,2014-01-06 06:11:00,
2014-01-06 01:26:00,70.3,68.0,29.96,North,-999,0.0,0.0,91,0.00,,,0.00,0,weatherlink.com 1.10,2014-01-06 06:26:00,
2014-01-06 01:41:00,70.1,67.0,29.96,North,-999,0.0,0.0,91,0.00,,,0.00,0,weatherlink.com 1.10,2014-01-06 06:41:00,
2014-01-06 01:56:00,69.9,67.0,29.96,North,-999,0.0,0.0,91,0.00,,,0.00,0,weatherlink.com 1.10,2014-01-06 06:56:00,
2014-01-06 02:11:00,69.9,68.0,29.96,North,-999,0.0,0.0,92,0.00,,,0.00,0,weatherlink.com 1.10,2014-01-06 07:11:00,
2014-01-06 02:26:00,70.0,68.0,29.96,North,-999,0.0,0.0,92,0.00,,,0.00,0,weatherlink.com 1.10,2014-01-06 07:26:00,
2014-01-06 02:41:00,70.0,68.0,29.96,North,-999,0.0,0.0,92,0.00,,,0.00,0,weatherlink.com 1.10,2014-01-06 07:41:00,
2014-01-06 02:56:00,70.0,68.0,29.96,North,-999,0.0,0.0,92,0.00,,,0.00,0,weatherlink.com 1.10,2014-01-06 07:56:00,
2014-01-06 03:11:00,69.8,67.0,29.96,North,-999,0.0,0.0,92,0.00,,,0.00,0,weatherlink.com 1.10,2014-01-06 08:11:00,
2014-01-06 03:26:00,69.9,68.0,29.96,North,-999,0.0,0.0,92,0.00,,,0.00,0,weatherlink.com 1.10,2014-01-06 08:26:00,
2014-01-06 03:41:00,69.9,68.0,29.95,North,-999,0.0,0.0,92,0.00,,,0.00,0,weatherlink.com 1.10,2014-01-06 08:41:00,
2014-01-06 03:56:00,69.9,68.0,29.95,North,-999,0.0,0.0,92,0.00,,,0.00,0,weatherlink.com 1.10,2014-01-06 08:56:00,
2014-01-06 04:11:00,69.9,68.0,29.95,North,-999,0.0,0.0,92,0.00,,,0.00,0,weatherlink.com 1.10,2014-01-06 09:11:00,
2014-01-06 04:26:00,69.9,68.0,29.95,North,-999,0.0,0.0,92,0.00,,,0.00,0,weatherlink.com 1.10,2014-01-06 09:26:00,
2014-01-06 04:41:00,69.7,67.0,29.95,North,-999,0.0,0.0,92,0.00,,,0.00,0,weatherlink.com 1.10,2014-01-06 09:41:00,
2014-01-06 04:56:00,69.7,67.0,29.95,North,-999,0.0,0.0,92,0.00,,,0.00,0,weatherlink.com 1.10,2014-01-06 09:56:00,
2014-01-06 05:12:00,69.7,67.0,29.95,North,-999,0.0,0.0,92,0.00,,,0.00,0,weatherlink.com 1.10,2014-01-06 10:12:00,
2014-01-06 05:27:00,69.9,68.0,29.95,North,-999,0.0,0.0,92,0.00,,,0.00,0,weatherlink.com 1.10,2014-01-06 10:27:00,
2014-01-06 05:42:00,69.8,67.0,29.96,North,-999,0.0,0.0,92,0.00,,,0.00,0,weatherlink.com 1.10,2014-01-06 10:42:00,
2014-01-06 05:57:00,69.7,67.0,29.96,North,-999,0.0,0.0,92,0.00,,,0.00,0,weatherlink.com 1.10,2014-01-06 10:57:00,
2014-01-06 06:12:00,69.7,67.0,29.97,North,-999,0.0,0.0,92,0.00,,,0.00,0,weatherlink.com 1.10,2014-01-06 11:12:00,
2014-01-06 06:27:00,69.4,67.0,29.98,North,-999,0.0,0.0,92,0.00,,,0.00,0,weatherlink.com 1.10,2014-01-06 11:27:00,
2014-01-06 06:42:00,69.3,67.0,29.98,North,-999,0.0,0.0,92,0.00,,,0.00,0,weatherlink.com 1.10,2014-01-06 11:42:00,
2014-01-06 06:57:00,69.4,67.0,29.98,North,-999,0.0,-999.0,92,0.00,,,0.00,0,weatherlink.com 1.10,2014-01-06 11:57:00,
2014-01-06 07:12:00,69.2,67.0,29.99,North,-999,0.0,0.0,92,0.00,,,0.00,11,weatherlink.com 1.10,2014-01-06 12:12:00,
2014-01-06 07:27:00,69.4,67.0,29.99,North,-999,0.0,0.0,92,0.00,,,0.00,40,weatherlink.com 1.10,2014-01-06 12:27:00,
2014-01-06 07:42:00,69.7,67.0,30.00,North,-999,0.0,0.0,92,0.00,,,0.00,62,weatherlink.com 1.10,2014-01-06 12:42:00,
2014-01-06 07:57:00,70.2,68.0,30.00,North,-999,0.0,0.0,92,0.00,,,0.00,88,weatherlink.com 1.10,2014-01-06 12:57:00,
2014-01-06 08:12:00,70.5,68.0,30.01,North,-999,0.0,0.0,92,0.00,,,0.00,183,weatherlink.com 1.10,2014-01-06 13:12:00,
2014-01-06 08:27:00,71.2,69.0,30.02,North,-999,0.0,0.0,91,0.00,,,0.00,209,weatherlink.com 1.10,2014-01-06 13:27:00,
2014-01-06 08:42:00,72.1,69.0,30.02,North,-999,0.0,0.0,91,0.00,,,0.00,141,weatherlink.com 1.10,2014-01-06 13:42:00,
2014-01-06 08:57:00,72.8,70.0,30.02,North,-999,0.0,0.0,90,0.00,,,0.00,171,weatherlink.com 1.10,2014-01-06 13:57:00,
2014-01-06 09:12:00,73.9,71.0,30.03,North,-999,0.0,0.0,89,0.00,,,0.00,325,weatherlink.com 1.10,2014-01-06 14:12:00,
2014-01-06 09:27:00,75.3,71.0,30.03,North,-999,0.0,0.0,87,0.00,,,0.00,415,weatherlink.com 1.10,2014-01-06 14:27:00,
2014-01-06 09:42:00,76.3,71.0,30.04,North,-999,0.0,0.0,84,0.00,,,0.00,265,weatherlink.com 1.10,2014-01-06 14:42:00,
2014-01-06 09:57:00,77.0,72.0,30.03,North,-999,0.0,0.0,84,0.00,,,0.00,489,weatherlink.com 1.10,2014-01-06 14:57:00,
2014-01-06 10:12:00,77.8,72.0,30.03,North,-999,0.0,0.0,82,0.00,,,0.00,522,weatherlink.com 1.10,2014-01-06 15:12:00,
2014-01-06 10:27:00,78.5,72.0,30.03,North,-999,0.0,0.0,79,0.00,,,0.00,494,weatherlink.com 1.10,2014-01-06 15:27:00,
2014-01-06 10:42:00,78.7,71.0,30.02,North,-999,0.0,0.0,78,0.00,,,0.00,628,weatherlink.com 1.10,2014-01-06 15:42:00,
2014-01-06 10:57:00,79.3,71.0,30.02,North,-999,0.0,0.0,76,0.00,,,0.00,677,weatherlink.com 1.10,2014-01-06 15:57:00,
2014-01-06 11:12:00,79.4,71.0,30.00,North,-999,0.0,0.0,75,0.00,,,0.00,322,weatherlink.com 1.10,2014-01-06 16:12:00,
2014-01-06 11:27:00,80.3,71.0,30.00,North,-999,0.0,0.0,74,0.00,,,0.00,796,weatherlink.com 1.10,2014-01-06 16:27:00,
2014-01-06 11:43:00,81.2,71.0,29.99,North,-999,0.0,0.0,71,0.00,,,0.00,721,weatherlink.com 1.10,2014-01-06 16:43:00,
2014-01-06 11:58:00,81.5,70.0,29.99,North,-999,0.0,0.0,69,0.00,,,0.00,578,weatherlink.com 1.10,2014-01-06 16:58:00,
2014-01-06 12:13:00,81.9,71.0,29.98,North,-999,0.0,0.0,70,0.00,,,0.00,615,weatherlink.com 1.10,2014-01-06 17:13:00,
2014-01-06 12:28:00,82.0,70.0,29.98,North,-999,0.0,0.0,67,0.00,,,0.00,468,weatherlink.com 1.10,2014-01-06 17:28:00,
2014-01-06 12:43:00,80.7,70.0,29.97,North,-999,0.0,0.0,69,0.00,,,0.00,448,weatherlink.com 1.10,2014-01-06 17:43:00,
2014-01-06 12:58:00,81.4,70.0,29.96,North,-999,0.0,0.0,68,0.00,,,0.00,450,weatherlink.com 1.10,2014-01-06 17:58:00,
2014-01-06 13:13:00,81.8,70.0,29.96,North,-999,0.0,0.0,68,0.00,,,0.00,406,weatherlink.com 1.10,2014-01-06 18:13:00,
2014-01-06 13:28:00,82.4,69.0,29.95,North,-999,0.0,0.0,65,0.00,,,0.00,557,weatherlink.com 1.10,2014-01-06 18:28:00,
2014-01-06 13:43:00,82.0,69.0,29.95,North,-999,0.0,0.0,64,0.00,,,0.00,578,weatherlink.com 1.10,2014-01-06 18:43:00,
2014-01-06 13:58:00,82.7,69.0,29.95,North,-999,0.0,0.0,63,0.00,,,0.00,615,weatherlink.com 1.10,2014-01-06 18:58:00,
2014-01-06 14:13:00,82.8,68.0,29.95,North,-999,0.0,0.0,62,0.00,,,0.00,501,weatherlink.com 1.10,2014-01-06 19:13:00,
2014-01-06 14:28:00,82.7,68.0,29.95,North,-999,0.0,0.0,61,0.00,,,0.00,401,weatherlink.com 1.10,2014-01-06 19:28:00,
2014-01-06 14:43:00,82.4,68.0,29.94,North,-999,0.0,0.0,62,0.00,,,0.00,353,weatherlink.com 1.10,2014-01-06 19:43:00,
2014-01-06 14:58:00,82.5,69.0,29.94,North,-999,0.0,0.0,63,0.00,,,0.00,295,weatherlink.com 1.10,2014-01-06 19:58:00,
2014-01-06 15:13:00,82.6,68.0,29.93,North,-999,0.0,0.0,61,0.00,,,0.00,388,weatherlink.com 1.10,2014-01-06 20:13:00,
2014-01-06 15:28:00,82.9,68.0,29.94,North,-999,0.0,0.0,61,0.00,,,0.00,260,weatherlink.com 1.10,2014-01-06 20:28:00,
2014-01-06 15:43:00,82.2,68.0,29.94,North,-999,0.0,0.0,62,0.00,,,0.00,265,weatherlink.com 1.10,2014-01-06 20:43:00,
2014-01-06 15:58:00,82.6,68.0,29.95,North,-999,0.0,0.0,61,0.00,,,0.00,250,weatherlink.com 1.10,2014-01-06 20:58:00,
2014-01-06 16:13:00,82.6,68.0,29.95,North,-999,0.0,0.0,62,0.00,,,0.00,149,weatherlink.com 1.10,2014-01-06 21:13:00,
2014-01-06 16:28:00,82.0,68.0,29.95,North,-999,0.0,0.0,63,0.00,,,0.00,79,weatherlink.com 1.10,2014-01-06 21:28:00,
2014-01-06 16:43:00,81.5,68.0,29.95,North,-999,0.0,0.0,64,0.00,,,0.00,40,weatherlink.com 1.10,2014-01-06 21:43:00,
2014-01-06 16:58:00,81.3,68.0,29.96,North,-999,0.0,0.0,65,0.00,,,0.00,14,weatherlink.com 1.10,2014-01-06 21:58:00,
2014-01-06 17:13:00,80.7,69.0,29.96,North,-999,0.0,0.0,67,0.00,,,0.00,5,weatherlink.com 1.10,2014-01-06 22:13:00,
2014-01-06 17:28:00,79.6,68.0,29.97,North,-999,0.0,0.0,67,0.00,,,0.00,0,weatherlink.com 1.10,2014-01-06 22:28:00,
2014-01-06 17:43:00,77.9,68.0,29.98,North,-999,0.0,0.0,71,0.00,,,0.00,0,weatherlink.com 1.10,2014-01-06 22:43:00,
2014-01-06 17:58:00,77.3,67.0,29.99,North,-999,0.0,0.0,71,0.00,,,0.00,0,weatherlink.com 1.10,2014-01-06 22:58:00,
2014-01-06 18:13:00,73.5,66.0,30.01,North,-999,0.0,0.0,76,0.00,,,0.00,0,weatherlink.com 1.10,2014-01-06 23:13:00,
2014-01-06 18:28:00,72.3,65.0,30.01,North,-999,0.0,0.0,77,0.00,,,0.00,0,weatherlink.com 1.10,2014-01-06 23:28:00,
2014-01-06 18:43:00,71.4,64.0,30.02,North,-999,0.0,0.0,78,0.00,,,0.00,0,weatherlink.com 1.10,2014-01-06 23:43:00,
2014-01-06 18:58:00,71.0,65.0,30.03,North,-999,0.0,0.0,80,0.00,,,0.00,0,weatherlink.com 1.10,2014-01-06 23:58:00,
2014-01-06 19:13:00,70.3,64.0,30.04,North,-999,0.0,0.0,81,0.00,,,0.00,0,weatherlink.com 1.10,2014-01-07 00:13:00,
2014-01-06 19:28:00,69.2,62.0,30.06,North,-999,0.0,0.0,77,0.00,,,0.00,0,weatherlink.com 1.10,2014-01-07 00:28:00,
2014-01-06 19:43:00,67.6,56.0,30.07,North,-999,0.0,0.0,66,0.00,,,0.00,0,weatherlink.com 1.10,2014-01-07 00:43:00,
2014-01-06 19:58:00,66.5,55.0,30.08,North,-999,0.0,0.0,66,0.00,,,0.00,0,weatherlink.com 1.10,2014-01-07 00:58:00,
2014-01-06 20:13:00,65.5,55.0,30.08,North,-999,0.0,0.0,69,0.00,,,0.00,0,weatherlink.com 1.10,2014-01-07 01:13:00,
2014-01-06 20:28:00,65.1,55.0,30.09,North,-999,0.0,0.0,70,0.00,,,0.00,0,weatherlink.com 1.10,2014-01-07 01:28:00,
2014-01-06 20:43:00,64.2,44.0,30.11,North,-999,0.0,0.0,48,0.00,,,0.00,0,weatherlink.com 1.10,2014-01-07 01:43:00,
2014-01-06 20:58:00,63.6,44.0,30.12,North,-999,0.0,0.0,49,0.00,,,0.00,0,weatherlink.com 1.10,2014-01-07 01:58:00,
2014-01-06 21:13:00,63.0,44.0,30.13,North,-999,0.0,0.0,51,0.00,,,0.00,0,weatherlink.com 1.10,2014-01-07 02:13:00,
2014-01-06 21:28:00,62.8,45.0,30.13,North,-999,0.0,0.0,53,0.00,,,0.00,0,weatherlink.com 1.10,2014-01-07 02:28:00,
2014-01-06 21:44:00,62.4,44.0,30.14,North,-999,0.0,0.0,51,0.00,,,0.00,0,weatherlink.com 1.10,2014-01-07 02:44:00,
2014-01-06 21:59:00,62.0,44.0,30.14,North,-999,0.0,0.0,52,0.00,,,0.00,0,weatherlink.com 1.10,2014-01-07 02:59:00,
2014-01-06 22:14:00,61.6,45.0,30.14,North,-999,0.0,0.0,54,0.00,,,0.00,0,weatherlink.com 1.10,2014-01-07 03:14:00,
2014-01-06 22:29:00,60.8,45.0,30.15,North,-999,0.0,0.0,56,0.00,,,0.00,0,weatherlink.com 1.10,2014-01-07 03:29:00,
2014-01-06 22:44:00,60.2,47.0,30.15,North,-999,0.0,0.0,62,0.00,,,0.00,0,weatherlink.com 1.10,2014-01-07 03:44:00,
2014-01-06 22:59:00,58.3,48.0,30.15,North,-999,0.0,0.0,69,0.00,,,0.00,0,weatherlink.com 1.10,2014-01-07 03:59:00,
2014-01-06 23:14:00,57.7,46.0,30.15,North,-999,0.0,0.0,66,0.00,,,0.00,0,weatherlink.com 1.10,2014-01-07 04:14:00,
2014-01-06 23:29:00,57.7,45.0,30.15,North,-999,0.0,0.0,62,0.00,,,0.00,0,weatherlink.com 1.10,2014-01-07 04:29:00,
2014-01-06 23:44:00,57.7,45.0,30.16,North,-999,0.0,0.0,62,0.00,,,0.00,0,weatherlink.com 1.10,2014-01-07 04:44:00,
2014-01-06 23:59:00,57.4,38.0,30.17,North,-999,0.0,0.0,49,0.00,,,0.00,0,weatherlink.com 1.10,2014-01-07 04:59:00,